Yosemite Valley, CA

3:50 PM PDT on August 21, 2014 (GMT -0700)
RAWS WAWONA CA US | Change Station
CLOSE
Current Station
Personal Weather Station
Location: Tuolumne Meadows, CA
Elevation: 4309 ft
Nearby Weather Stations

Elev 4309 ft 37.53 °N, 119.64 °W | Updated 59 minutes ago

Clear
Clear
83 °F
Feels Like 81 °F
N
4
Wind Variable Wind from SW
Gusts 9.0 mph

Today
High -- | Low -- °F
--% Chance of Precip.
Yesterday
High -- | Low -- °F
Precip. -- in
6:19 AM 7:43 PM
Waning Crescent, 12% visible
Pressure 29.96 in
Visibility 10.0 miles
Clouds Clear
Heat Index 81 °F
Dew Point 42 °F
Humidity 24%
Rainfall 0.00 in
Snow Depth Not available.
UV 7 out of 12
Pollen 8.30 out of 12
Air Quality Not available.
Flu Activity Not available.
METAR KO22 212235Z AUTO 19004KT 10SM CLR 32/06 A2996 RMK AO1

More Conditions Fewer Conditions

Pressure 29.96 in
Visibility 10.0 miles
Clouds Clear
Heat Index 81 °F
Dew Point 42 °F
Humidity 24%
Rainfall 0.00 in
Snow Depth Not available.
UV 7 out of 12
Pollen 8.30 out of 12
Air Quality Not available.
Flu Activity Not available.
METAR KO22 212235Z AUTO 19004KT 10SM CLR 32/06 A2996 RMK AO1

More Conditions Fewer Conditions

10-Day Weather Forecast

Almanac

Astronomy

Aug. 21, 2014 Rise Set
Actual Time 6:19 AM PDT 7:43 PM PDT
Civil Twilight 5:51 AM PDT 8:10 PM PDT
Nautical Twilight 5:18 AM PDT 8:43 PM PDT
Astronomical Twilight 4:43 AM PDT 9:17 PM PDT
Moon 2:55 AM PDT 5:13 PM PDT
Length of Visible Light 14h 18m
Length of Day
13h 23m
Tomorrow will be 2m 13s shorter.
Waning Crescent, 12% of the Moon is Illuminated
Today
Waning Crescent
Aug 25
New
Sep 2
First Quarter
Sep 8
Full
Sep 15
Last Quarter

Today's Extremes

State Highs State Lows

Community

WunderPhotos

Upload Photos

1,746,044 photos uploaded!

WunderBlogs® & News

Nearby

Snow Depth

Station Depth Elevation
Leavitt Meadows 1 in 7200 ft
Monitor Pass 0 in 8350 ft
Tahoe City Cross 0 in 6750 ft
CSS Lab 0 in 6900 ft
Adin Mountain 1 in 6200 ft

Earthquake Activity

City Distance Mag. Time & Date
King City, California 121 miles 2.7 10:26 PM PDT
2014-08-15
Kettleman City, California 119 miles 2.9 11:32 PM PDT
2014-08-14
King City, California 121 miles 2.9 8:01 PM PDT
2014-08-14
Minimum magnitude displayed is 2.5.

Coastal Water Temperatures

Place Temperature
No Stations Reporting

Nearby Weather Stations